Time;durP1;ratioP1;P1;durP2;ratioP2;P2;SDS_P1;SDS_P2;PMS_P1;PMS_P2;Temp;Humidity;BMP_temperature;BMP_pressure;BME280_temperature;BME280_humidity;BME280_pressure;Samples;Min_cycle;Max_cycle;Signal;HPM_P1;HPM_P2
2023/04/14 00:00:38;;;;;;;10.60;7.65;;;7.00;99.90;;;;;;5048973;28;20222;-76
2023/04/14 00:03:06;;;;;;;10.20;6.55;;;6.90;99.90;;;;;;5041924;28;20275;-76
2023/04/14 00:05:34;;;;;;;7.93;6.53;;;6.80;99.90;;;;;;5041762;28;20225;-77
2023/04/14 00:08:02;;;;;;;9.23;7.47;;;6.80;99.90;;;;;;5048794;28;20247;-79
2023/04/14 00:10:29;;;;;;;8.27;7.10;;;6.70;99.90;;;;;;5054412;28;20291;-74
2023/04/14 00:12:56;;;;;;;11.82;7.90;;;6.70;99.90;;;;;;5053782;28;20206;-77
2023/04/14 00:15:24;;;;;;;15.20;7.68;;;6.70;99.90;;;;;;5052550;28;20304;-76
2023/04/14 00:17:51;;;;;;;8.93;8.02;;;6.60;99.90;;;;;;5043871;28;20204;-76
2023/04/14 00:20:18;;;;;;;9.82;7.22;;;6.60;99.90;;;;;;5048812;28;20237;-77
2023/04/14 00:22:45;;;;;;;8.25;6.85;;;6.50;99.90;;;;;;5062444;28;20194;-74
2023/04/14 00:25:12;;;;;;;13.02;6.85;;;6.60;99.90;;;;;;5047972;28;20759;-78
2023/04/14 00:27:39;;;;;;;10.20;7.63;;;6.60;99.90;;;;;;5048398;28;20206;-79
2023/04/14 00:30:07;;;;;;;8.02;6.90;;;6.60;99.90;;;;;;5044462;28;20626;-76
2023/04/14 00:32:35;;;;;;;9.13;7.40;;;6.60;99.90;;;;;;5038657;28;20634;-75
2023/04/14 00:35:03;;;;;;;9.70;8.18;;;6.60;99.90;;;;;;5055050;28;20302;-78
2023/04/14 00:37:30;;;;;;;9.02;6.57;;;6.60;99.90;;;;;;5054538;28;20196;-77
2023/04/14 00:39:57;;;;;;;9.23;6.95;;;6.60;99.90;;;;;;5049812;28;20211;-79
2023/04/14 00:42:26;;;;;;;13.07;7.93;;;6.50;99.90;;;;;;5051230;28;20190;-79
2023/04/14 00:44:52;;;;;;;11.20;6.43;;;6.50;99.90;;;;;;5051388;28;20648;-76
2023/04/14 00:47:21;;;;;;;9.88;6.40;;;6.60;99.90;;;;;;5044665;28;20290;-80
2023/04/14 00:49:50;;;;;;;10.07;6.50;;;6.60;99.90;;;;;;5050712;28;20219;-77
2023/04/14 00:52:20;;;;;;;11.23;7.32;;;6.60;99.90;;;;;;5045507;28;20215;-77
2023/04/14 00:54:48;;;;;;;9.82;6.95;;;6.60;99.90;;;;;;5046682;28;20751;-77
2023/04/14 00:57:15;;;;;;;11.18;6.88;;;6.60;99.90;;;;;;5045706;28;20752;-78
2023/04/14 00:59:43;;;;;;;10.20;7.07;;;6.50;99.90;;;;;;5060089;28;20207;-76
2023/04/14 01:02:10;;;;;;;13.52;6.53;;;6.50;99.90;;;;;;5051654;28;20278;-78
2023/04/14 01:04:38;;;;;;;12.07;5.88;;;6.60;99.90;;;;;;5037556;28;20335;-78
2023/04/14 01:07:06;;;;;;;10.73;6.65;;;6.60;99.90;;;;;;5045701;28;20546;-80
2023/04/14 01:09:35;;;;;;;8.15;5.97;;;6.60;99.90;;;;;;5044479;28;20201;-78
2023/04/14 01:12:12;;;;;;;8.52;6.32;;;6.60;99.90;;;;;;5054397;28;20252;-78
2023/04/14 01:14:43;;;;;;;9.88;7.60;;;6.60;99.90;;;;;;5038435;28;20229;-78
2023/04/14 01:17:22;;;;;;;11.77;6.95;;;6.50;99.90;;;;;;5038674;28;20295;-78
2023/04/14 01:20:07;;;;;;;11.05;7.00;;;6.50;99.90;;;;;;5043253;28;20447;-78
2023/04/14 01:22:43;;;;;;;14.55;7.85;;;6.60;99.90;;;;;;5044929;28;20198;-78
2023/04/14 01:25:46;;;;;;;9.18;6.88;;;6.60;99.90;;;;;;5043678;28;20229;-77
2023/04/14 01:28:22;;;;;;;12.88;7.90;;;6.60;99.90;;;;;;5047246;28;20209;-79
2023/04/14 01:31:05;;;;;;;13.50;8.43;;;6.50;99.90;;;;;;5048144;28;20240;-79
2023/04/14 01:33:38;;;;;;;14.80;7.85;;;6.40;99.90;;;;;;5041781;28;20683;-78
2023/04/14 01:36:09;;;;;;;11.93;8.40;;;6.40;99.90;;;;;;5051326;28;20213;-76
2023/04/14 01:38:39;;;;;;;10.75;8.35;;;6.30;99.90;;;;;;5047571;28;20208;-76
2023/04/14 01:41:09;;;;;;;12.30;8.13;;;6.30;99.90;;;;;;5050650;28;20232;-78
2023/04/14 01:43:41;;;;;;;11.82;8.55;;;6.30;99.90;;;;;;5050638;28;20203;-76
2023/04/14 01:46:15;;;;;;;14.23;7.82;;;6.30;99.90;;;;;;5050551;28;20544;-79
2023/04/14 01:48:45;;;;;;;15.88;11.52;;;6.20;99.90;;;;;;5052277;28;20622;-76
2023/04/14 01:51:14;;;;;;;14.38;9.10;;;6.20;99.90;;;;;;5049643;28;20296;-78
2023/04/14 01:53:44;;;;;;;19.15;10.48;;;6.20;99.90;;;;;;5046340;28;20210;-75
2023/04/14 01:56:13;;;;;;;11.63;7.47;;;6.20;99.90;;;;;;5050284;28;20195;-80
2023/04/14 01:58:42;;;;;;;10.00;8.25;;;6.20;99.90;;;;;;5038011;28;20281;-79
2023/04/14 02:01:09;;;;;;;11.88;9.23;;;6.20;99.90;;;;;;5039493;28;20264;-77
2023/04/14 02:03:38;;;;;;;15.90;10.40;;;6.20;99.90;;;;;;5043373;28;20209;-78
2023/04/14 02:06:09;;;;;;;15.48;10.05;;;6.20;99.90;;;;;;5040116;28;20209;-77
2023/04/14 02:08:39;;;;;;;11.43;9.60;;;6.10;99.90;;;;;;5041259;28;20300;-77
2023/04/14 02:11:08;;;;;;;15.48;10.77;;;6.10;99.90;;;;;;5039960;28;20252;-76
2023/04/14 02:13:37;;;;;;;14.15;10.93;;;6.00;99.90;;;;;;5051704;28;20213;-77
2023/04/14 02:16:08;;;;;;;16.38;12.32;;;6.00;99.90;;;;;;5043259;28;20222;-77
2023/04/14 02:18:37;;;;;;;15.60;10.82;;;5.90;99.90;;;;;;5048989;28;20288;-78
2023/04/14 02:21:05;;;;;;;15.25;11.60;;;5.90;99.90;;;;;;5045731;28;20200;-78
2023/04/14 02:23:34;;;;;;;16.58;11.77;;;5.80;99.90;;;;;;5053538;28;20648;-78
2023/04/14 02:26:04;;;;;;;17.17;13.40;;;5.90;99.90;;;;;;5046022;28;20207;-75
2023/04/14 02:28:37;;;;;;;12.40;11.05;;;5.90;99.90;;;;;;5043188;28;20301;-77
2023/04/14 02:31:08;;;;;;;17.55;12.00;;;5.90;99.90;;;;;;5051246;28;20210;-78
2023/04/14 02:33:38;;;;;;;14.07;11.43;;;5.90;99.90;;;;;;5050109;28;20665;-76
2023/04/14 02:36:31;;;;;;;21.05;11.77;;;5.90;99.90;;;;;;5047475;28;20200;-81
2023/04/14 02:39:04;;;;;;;12.43;10.88;;;5.90;99.90;;;;;;5044080;28;20320;-79
2023/04/14 02:41:32;;;;;;;18.17;12.77;;;6.00;99.90;;;;;;5045213;28;20271;-78
2023/04/14 02:44:05;;;;;;;15.13;11.30;;;6.00;99.90;;;;;;5047856;28;20221;-77
2023/04/14 02:46:39;;;;;;;17.75;11.95;;;6.00;99.90;;;;;;5046938;28;20246;-77
2023/04/14 02:49:07;;;;;;;14.02;11.35;;;6.00;99.90;;;;;;5048081;28;20594;-79
2023/04/14 02:51:53;;;;;;;15.45;11.70;;;6.00;99.90;;;;;;5049436;28;20311;-77
2023/04/14 02:54:22;;;;;;;20.38;10.52;;;6.00;99.90;;;;;;5049669;28;20246;-76
2023/04/14 02:56:58;;;;;;;13.60;11.20;;;6.00;99.90;;;;;;5049198;28;20273;-78
2023/04/14 02:59:32;;;;;;;15.07;10.68;;;6.00;99.90;;;;;;5058761;28;20208;-79
2023/04/14 03:02:04;;;;;;;20.42;10.38;;;5.90;99.90;;;;;;5057417;28;20212;-79
2023/04/14 03:04:33;;;;;;;11.85;10.38;;;5.90;99.90;;;;;;5042092;28;20590;-78
2023/04/14 03:07:01;;;;;;;14.95;11.10;;;5.90;99.90;;;;;;5043768;28;20219;-78
2023/04/14 03:09:30;;;;;;;16.17;13.18;;;5.90;99.90;;;;;;5045405;28;20547;-79
2023/04/14 03:11:59;;;;;;;14.68;9.55;;;5.90;99.90;;;;;;5035723;28;20632;-79
2023/04/14 03:14:26;;;;;;;14.23;11.30;;;5.90;99.90;;;;;;5051714;28;20624;-79
2023/04/14 03:16:54;;;;;;;14.95;11.85;;;5.90;99.90;;;;;;5049572;28;20758;-80
2023/04/14 03:19:23;;;;;;;13.63;10.60;;;5.90;99.90;;;;;;5053102;28;20200;-78
2023/04/14 03:21:50;;;;;;;14.77;10.60;;;6.00;99.90;;;;;;5051552;28;20554;-79
2023/04/14 03:24:23;;;;;;;11.90;9.73;;;5.90;99.90;;;;;;5044279;28;20225;-78
2023/04/14 03:26:56;;;;;;;15.80;10.85;;;6.00;99.90;;;;;;5044437;28;20200;-78
2023/04/14 03:29:25;;;;;;;15.68;9.73;;;5.90;99.90;;;;;;5054964;28;20662;-78
2023/04/14 03:31:54;;;;;;;14.38;11.05;;;5.90;99.90;;;;;;5042724;28;20250;-77
2023/04/14 03:34:23;;;;;;;14.68;9.40;;;5.90;99.90;;;;;;5054734;28;20260;-78
2023/04/14 03:36:53;;;;;;;16.17;10.52;;;5.80;99.90;;;;;;5049711;28;20231;-79
2023/04/14 03:39:21;;;;;;;13.05;11.35;;;5.80;99.90;;;;;;5055321;28;20213;-78
2023/04/14 03:41:51;;;;;;;12.75;11.30;;;5.80;99.90;;;;;;5053484;28;20280;-76
2023/04/14 03:44:21;;;;;;;17.65;11.35;;;5.80;99.90;;;;;;5048597;28;20220;-79
2023/04/14 03:46:48;;;;;;;14.38;11.93;;;5.90;99.90;;;;;;5048473;28;20662;-78
2023/04/14 03:49:18;;;;;;;15.30;10.98;;;5.80;99.90;;;;;;5047623;28;20211;-78
2023/04/14 03:51:50;;;;;;;18.73;12.00;;;5.80;99.90;;;;;;5051555;28;20220;-78
2023/04/14 03:54:18;;;;;;;13.77;12.02;;;5.70;99.90;;;;;;5045110;28;20265;-79
2023/04/14 03:56:47;;;;;;;13.00;11.60;;;5.60;99.90;;;;;;5044256;28;20209;-79
2023/04/14 03:59:18;;;;;;;16.65;11.57;;;5.60;99.90;;;;;;5054315;28;20196;-80
2023/04/14 04:01:46;;;;;;;15.90;10.85;;;5.60;99.90;;;;;;5043450;28;20213;-79
2023/04/14 04:04:14;;;;;;;17.63;11.52;;;5.60;99.90;;;;;;5045563;28;20618;-78
2023/04/14 04:06:42;;;;;;;12.10;9.73;;;5.60;99.90;;;;;;5051971;28;20241;-79
2023/04/14 04:09:13;;;;;;;14.57;12.50;;;5.50;99.90;;;;;;5050001;28;20240;-77
2023/04/14 04:11:42;;;;;;;18.60;11.60;;;5.50;99.90;;;;;;5040725;28;20196;-79
2023/04/14 04:14:10;;;;;;;15.48;11.93;;;5.50;99.90;;;;;;5052113;28;20216;-77
2023/04/14 04:16:42;;;;;;;17.73;11.38;;;5.50;99.90;;;;;;5054930;28;20232;-79
2023/04/14 04:19:10;;;;;;;15.98;11.65;;;5.50;99.90;;;;;;5050126;28;20205;-79
2023/04/14 04:21:40;;;;;;;18.40;13.25;;;5.50;99.90;;;;;;5053856;28;20200;-79
2023/04/14 04:24:12;;;;;;;14.80;12.52;;;5.50;99.90;;;;;;5045987;28;20309;-78
2023/04/14 04:26:39;;;;;;;14.80;12.52;;;5.40;99.90;;;;;;5041416;28;20231;-78
2023/04/14 04:29:07;;;;;;;17.00;12.88;;;5.40;99.90;;;;;;5055343;28;20273;-78
2023/04/14 04:31:34;;;;;;;15.75;12.73;;;5.40;99.90;;;;;;5050876;28;20205;-78
2023/04/14 04:34:02;;;;;;;15.27;13.20;;;5.40;99.90;;;;;;5046196;28;20686;-78
2023/04/14 04:36:32;;;;;;;19.63;13.10;;;5.50;99.90;;;;;;5039559;28;20223;-78
2023/04/14 04:39:00;;;;;;;15.68;11.50;;;5.40;99.90;;;;;;5053803;28;20710;-77
2023/04/14 04:41:28;;;;;;;23.13;12.73;;;5.40;99.90;;;;;;5050174;28;20280;-77
2023/04/14 04:43:55;;;;;;;18.13;11.95;;;5.30;99.90;;;;;;5056341;28;20228;-77
2023/04/14 04:46:46;;;;;;;16.58;12.18;;;5.30;99.90;;;;;;5047884;28;20197;-79
2023/04/14 04:49:14;;;;;;;20.70;13.10;;;5.40;99.90;;;;;;5061561;28;20555;-78
2023/04/14 04:51:43;;;;;;;18.55;12.35;;;5.40;99.90;;;;;;5047069;28;20207;-78
2023/04/14 04:54:13;;;;;;;14.82;12.43;;;5.30;99.90;;;;;;5063804;28;20293;-78
2023/04/14 04:56:40;;;;;;;15.38;11.27;;;5.40;99.90;;;;;;5059338;28;20230;-78
2023/04/14 04:59:07;;;;;;;17.08;12.63;;;5.40;99.90;;;;;;5054983;28;20203;-77
2023/04/14 05:01:34;;;;;;;19.52;14.13;;;5.40;99.90;;;;;;5045887;28;20214;-76
2023/04/14 05:04:01;;;;;;;15.68;12.85;;;5.50;99.90;;;;;;5053721;28;20220;-79
2023/04/14 05:06:35;;;;;;;21.65;14.18;;;5.40;99.90;;;;;;5042196;28;20687;-77
2023/04/14 05:09:03;;;;;;;13.93;12.30;;;5.50;99.90;;;;;;5054827;28;20211;-77
2023/04/14 05:11:36;;;;;;;19.38;12.77;;;5.50;99.90;;;;;;5043112;28;20670;-77
2023/04/14 05:14:03;;;;;;;17.17;13.07;;;5.40;99.90;;;;;;5055026;28;20259;-73
2023/04/14 05:16:32;;;;;;;29.98;12.30;;;5.50;99.90;;;;;;5046585;28;20201;-73
2023/04/14 05:18:59;;;;;;;16.90;12.48;;;5.60;99.90;;;;;;5051253;28;20224;-73
2023/04/14 05:21:27;;;;;;;11.80;10.23;;;5.70;99.90;;;;;;5042925;28;20204;-73
2023/04/14 05:23:55;;;;;;;13.90;11.35;;;6.00;99.90;;;;;;5042434;28;20219;-74
2023/04/14 05:26:40;;;;;;;16.15;12.38;;;6.10;99.90;;;;;;5054461;28;20609;-77
2023/04/14 05:29:07;;;;;;;13.77;11.18;;;6.20;99.90;;;;;;5051133;28;20208;-75
2023/04/14 05:31:50;;;;;;;12.70;9.05;;;6.30;99.90;;;;;;5055256;28;20196;-75
2023/04/14 05:34:17;;;;;;;9.73;8.73;;;6.90;99.90;;;;;;5048887;28;20314;-77
2023/04/14 05:37:00;;;;;;;11.80;8.00;;;7.70;99.90;;;;;;5046651;28;20202;-76
2023/04/14 05:39:46;;;;;;;6.03;5.53;;;8.50;99.90;;;;;;5056426;28;20243;-80
2023/04/14 05:42:13;;;;;;;8.60;7.45;;;9.20;99.90;;;;;;5054413;28;20689;-73
2023/04/14 05:44:41;;;;;;;9.18;7.00;;;9.50;99.90;;;;;;5037788;28;20761;-79
2023/04/14 05:47:08;;;;;;;6.20;5.60;;;9.90;99.90;;;;;;5047005;28;20859;-70
2023/04/14 05:49:36;;;;;;;7.80;5.60;;;10.50;99.90;;;;;;5041254;28;20212;-76
2023/04/14 05:52:03;;;;;;;8.25;6.68;;;11.10;99.90;;;;;;5045244;28;20292;-72
2023/04/14 05:54:30;;;;;;;6.70;6.05;;;11.70;99.90;;;;;;5040118;28;20262;-72
2023/04/14 05:56:58;;;;;;;5.95;5.32;;;12.50;99.90;;;;;;5043767;28;20254;-78
2023/04/14 05:59:26;;;;;;;7.15;5.30;;;13.50;99.90;;;;;;5046830;28;20336;-79
2023/04/14 06:01:53;;;;;;;5.57;4.82;;;14.30;99.90;;;;;;5037436;28;20746;-80
2023/04/14 06:04:20;;;;;;;6.35;5.03;;;14.60;99.90;;;;;;5038499;28;20345;-80
2023/04/14 06:06:47;;;;;;;8.07;5.57;;;15.20;99.90;;;;;;5042738;28;20211;-75
2023/04/14 06:09:13;;;;;;;6.10;4.77;;;16.00;99.10;;;;;;5054058;28;20285;-75
2023/04/14 06:11:42;;;;;;;5.60;3.60;;;16.80;96.80;;;;;;5045651;28;20550;-77
2023/04/14 06:14:10;;;;;;;4.70;3.83;;;17.70;93.90;;;;;;5047986;28;21003;-79
2023/04/14 06:16:37;;;;;;;8.10;5.40;;;18.80;91.60;;;;;;5035771;28;20497;-74
2023/04/14 06:19:04;;;;;;;5.73;4.27;;;19.20;90.10;;;;;;5040800;28;20874;-75
2023/04/14 06:21:31;;;;;;;5.63;4.37;;;20.10;87.90;;;;;;5051639;28;20504;-75
2023/04/14 06:23:58;;;;;;;10.13;6.30;;;20.40;84.80;;;;;;5050912;28;20756;-74
2023/04/14 06:26:25;;;;;;;8.83;4.70;;;20.50;83.80;;;;;;5049720;28;20536;-74
2023/04/14 06:28:52;;;;;;;5.83;5.27;;;20.70;83.20;;;;;;5046085;28;20932;-74
2023/04/14 06:31:21;;;;;;;7.63;5.00;;;21.00;82.10;;;;;;5046771;28;20469;-75
2023/04/14 06:33:50;;;;;;;8.03;5.23;;;21.10;81.50;;;;;;5051002;28;20568;-73
2023/04/14 06:36:18;;;;;;;4.40;4.00;;;21.30;80.20;;;;;;5046553;28;20504;-73
2023/04/14 06:38:45;;;;;;;6.20;4.77;;;21.50;80.20;;;;;;5048682;28;20454;-77
2023/04/14 06:41:12;;;;;;;7.47;5.90;;;21.60;79.60;;;;;;5047304;28;20446;-73
2023/04/14 06:43:39;;;;;;;8.33;6.17;;;21.60;79.30;;;;;;5041412;28;21000;-75
2023/04/14 06:46:06;;;;;;;9.33;4.80;;;21.60;78.10;;;;;;5042419;28;20472;-72
2023/04/14 06:48:34;;;;;;;4.87;4.03;;;21.80;79.70;;;;;;5053095;28;20449;-73
2023/04/14 06:51:02;;;;;;;10.10;5.60;;;22.20;77.90;;;;;;5044725;28;20438;-75
2023/04/14 06:53:30;;;;;;;6.83;5.30;;;22.10;77.90;;;;;;5044795;28;21031;-76
2023/04/14 06:56:00;;;;;;;6.63;5.93;;;22.80;77.80;;;;;;5053101;28;20536;-77
2023/04/14 06:58:27;;;;;;;5.60;5.00;;;22.60;75.60;;;;;;5052305;28;20454;-73
2023/04/14 07:00:56;;;;;;;9.60;5.60;;;22.30;76.70;;;;;;5046447;28;20454;-73
2023/04/14 07:03:23;;;;;;;8.30;6.67;;;22.10;77.10;;;;;;5049053;28;20449;-74
2023/04/14 07:05:51;;;;;;;9.20;6.03;;;22.30;77.70;;;;;;5046320;28;20850;-74
2023/04/14 07:08:19;;;;;;;13.33;10.90;;;22.80;77.80;;;;;;5048866;28;20454;-76
2023/04/14 07:10:47;;;;;;;10.30;7.67;;;23.50;77.40;;;;;;5042520;28;20499;-75
2023/04/14 07:13:14;;;;;;;14.60;7.50;;;23.30;76.40;;;;;;5046673;28;20501;-76
2023/04/14 07:15:46;;;;;;;7.03;6.30;;;23.30;76.80;;;;;;5041616;28;20494;-75
2023/04/14 07:18:14;;;;;;;7.17;4.77;;;23.20;76.30;;;;;;5052787;28;20442;-73
2023/04/14 07:20:41;;;;;;;4.87;4.10;;;23.20;74.70;;;;;;5051764;28;20516;-75
2023/04/14 07:23:18;;;;;;;6.90;4.50;;;23.50;74.90;;;;;;5062017;28;20511;-75
2023/04/14 07:25:45;;;;;;;4.50;4.10;;;23.80;74.40;;;;;;5060401;28;20540;-72
2023/04/14 07:28:14;;;;;;;5.50;3.30;;;24.30;73.70;;;;;;5053806;28;20468;-74
2023/04/14 07:30:42;;;;;;;5.57;4.03;;;25.00;71.30;;;;;;5045140;28;20925;-73
2023/04/14 07:33:09;;;;;;;5.37;3.13;;;25.10;70.20;;;;;;5047185;28;20999;-75
2023/04/14 07:35:37;;;;;;;4.63;2.90;;;25.80;68.80;;;;;;5039718;28;20485;-72
2023/04/14 07:38:04;;;;;;;6.10;3.47;;;26.60;67.50;;;;;;5042119;28;20447;-74
2023/04/14 07:40:33;;;;;;;5.10;2.87;;;26.40;66.10;;;;;;5047705;28;20512;-74
2023/04/14 07:43:01;;;;;;;5.07;2.43;;;26.70;65.00;;;;;;5048098;28;20467;-73
2023/04/14 07:45:28;;;;;;;3.90;2.13;;;26.90;64.10;;;;;;5042584;28;20523;-73
2023/04/14 07:47:56;;;;;;;5.70;3.20;;;26.70;63.90;;;;;;5053520;28;20508;-76
2023/04/14 07:50:23;;;;;;;4.13;3.30;;;26.40;64.50;;;;;;5051047;28;20446;-76
2023/04/14 07:52:50;;;;;;;3.60;2.90;;;25.80;65.30;;;;;;5044795;28;20443;-75
2023/04/14 07:55:18;;;;;;;3.60;2.47;;;25.90;65.30;;;;;;5057217;28;20549;-76
2023/04/14 07:57:46;;;;;;;6.73;3.33;;;26.20;65.00;;;;;;5056337;28;20513;-72
2023/04/14 08:00:15;;;;;;;5.13;3.60;;;25.90;66.20;;;;;;5040863;28;20537;-73
2023/04/14 08:02:42;;;;;;;5.13;3.10;;;25.80;65.70;;;;;;5040555;28;20545;-74
2023/04/14 08:05:09;;;;;;;4.70;2.60;;;26.10;65.60;;;;;;5050253;28;20465;-74
2023/04/14 08:07:37;;;;;;;4.00;2.70;;;25.60;64.90;;;;;;5044983;28;20500;-73
2023/04/14 08:10:04;;;;;;;5.17;2.67;;;25.40;65.80;;;;;;5047561;28;20939;-75
2023/04/14 08:12:31;;;;;;;5.10;2.60;;;25.50;65.70;;;;;;5046954;28;20449;-73
2023/04/14 08:15:00;;;;;;;6.47;2.87;;;25.50;65.90;;;;;;5044473;28;20495;-73
2023/04/14 08:17:27;;;;;;;4.33;2.80;;;25.20;65.40;;;;;;5051559;28;20455;-76
2023/04/14 08:19:54;;;;;;;4.47;2.80;;;25.40;65.30;;;;;;5042082;28;20458;-72
2023/04/14 08:22:24;;;;;;;3.83;2.30;;;25.60;66.00;;;;;;5046918;28;20503;-70
2023/04/14 08:24:51;;;;;;;5.77;3.17;;;25.80;65.70;;;;;;5047779;28;20857;-71
2023/04/14 08:27:18;;;;;;;6.10;2.40;;;26.40;64.10;;;;;;5048374;28;20446;-71
2023/04/14 08:29:49;;;;;;;4.43;2.33;;;26.60;63.80;;;;;;5054679;28;20537;-71
2023/04/14 08:32:18;;;;;;;3.40;2.40;;;26.60;63.20;;;;;;5054194;28;20908;-71
2023/04/14 08:34:45;;;;;;;5.50;2.63;;;25.60;63.80;;;;;;5043685;28;20577;-68
2023/04/14 08:37:11;;;;;;;5.20;3.13;;;26.00;64.70;;;;;;5043056;28;20454;-68
2023/04/14 08:39:38;;;;;;;3.50;3.10;;;25.80;64.80;;;;;;5042996;28;20463;-67
2023/04/14 08:42:10;;;;;;;9.10;3.40;;;23.70;68.50;;;;;;5046958;28;20531;-74
2023/04/14 08:44:37;;;;;;;4.73;2.80;;;24.40;69.20;;;;;;5043555;28;20463;-73
2023/04/14 08:47:10;;;;;;;6.67;3.40;;;24.70;67.50;;;;;;5043366;28;20457;-74
2023/04/14 08:49:41;;;;;;;7.70;3.13;;;25.00;66.20;;;;;;5047185;28;20942;-72
2023/04/14 08:52:17;;;;;;;5.20;2.90;;;24.30;65.60;;;;;;5043694;28;21029;-73
2023/04/14 08:54:45;;;;;;;7.33;2.30;;;24.80;66.40;;;;;;5047243;28;21011;-73
2023/04/14 08:57:17;;;;;;;4.50;2.27;;;24.30;67.00;;;;;;5053535;28;21303;-75
2023/04/14 08:59:45;;;;;;;5.43;2.97;;;23.40;68.00;;;;;;5046963;28;20486;-73
2023/04/14 09:02:13;;;;;;;4.90;2.53;;;24.60;66.40;;;;;;5050081;28;20948;-75
2023/04/14 09:04:42;;;;;;;5.13;2.47;;;25.00;65.90;;;;;;5044733;28;20455;-74
2023/04/14 09:07:09;;;;;;;5.00;2.03;;;25.30;65.50;;;;;;5040631;28;20473;-72
2023/04/14 09:09:36;;;;;;;4.87;2.57;;;25.50;63.10;;;;;;5044918;28;20541;-73
2023/04/14 09:12:04;;;;;;;4.00;2.03;;;25.30;63.50;;;;;;5037205;28;20450;-74
2023/04/14 09:14:31;;;;;;;4.57;2.90;;;25.10;62.60;;;;;;5045959;28;20605;-72
2023/04/14 09:16:58;;;;;;;4.20;2.47;;;24.90;63.80;;;;;;5048964;28;20533;-74
2023/04/14 09:19:27;;;;;;;5.40;2.67;;;25.10;64.10;;;;;;5048833;28;20454;-74
2023/04/14 09:21:56;;;;;;;6.40;2.80;;;25.20;64.60;;;;;;5046084;28;20500;-74
2023/04/14 09:24:28;;;;;;;6.87;2.90;;;25.60;63.70;;;;;;5042536;28;20553;-73
2023/04/14 09:26:55;;;;;;;4.17;2.60;;;25.90;63.00;;;;;;5045627;28;20446;-75
2023/04/14 09:29:22;;;;;;;5.17;3.20;;;24.90;64.20;;;;;;5047798;28;20458;-74
2023/04/14 09:31:50;;;;;;;6.30;3.60;;;24.60;64.00;;;;;;5044154;28;20649;-75
2023/04/14 09:34:17;;;;;;;7.30;2.70;;;24.80;65.20;;;;;;5048813;28;20569;-75
2023/04/14 09:37:11;;;;;;;4.20;3.40;;;25.30;64.90;;;;;;5044773;28;20451;-74
2023/04/14 09:39:48;;;;;;;6.87;3.57;;;25.20;62.30;;;;;;5042677;28;20471;-75
2023/04/14 09:42:16;;;;;;;4.97;2.50;;;25.20;64.60;;;;;;5055056;28;20442;-74
2023/04/14 09:44:53;;;;;;;5.40;2.90;;;25.80;63.90;;;;;;5058291;28;20466;-74
2023/04/14 09:47:21;;;;;;;5.03;2.40;;;25.80;62.80;;;;;;5051839;28;20448;-71
2023/04/14 09:49:56;;;;;;;10.63;3.00;;;26.10;60.80;;;;;;5051656;28;20485;-74
2023/04/14 09:52:37;;;;;;;5.13;2.77;;;25.70;60.60;;;;;;5051090;28;20446;-75
2023/04/14 09:55:07;;;;;;;4.30;2.47;;;25.00;60.80;;;;;;5048860;28;20965;-74
2023/04/14 09:57:36;;;;;;;4.30;2.30;;;24.20;61.80;;;;;;5051477;28;20462;-75
2023/04/14 10:00:04;;;;;;;5.57;2.30;;;24.10;63.40;;;;;;5040296;28;20465;-72
2023/04/14 10:02:46;;;;;;;2.77;2.10;;;24.00;62.60;;;;;;5048665;28;20470;-74
2023/04/14 10:05:14;;;;;;;5.40;3.10;;;23.50;62.60;;;;;;5046149;28;20561;-74
2023/04/14 10:07:42;;;;;;;5.37;2.27;;;22.40;64.10;;;;;;5055675;28;20545;-73
2023/04/14 10:10:13;;;;;;;2.87;1.53;;;21.60;65.40;;;;;;5040293;28;20534;-76
2023/04/14 10:12:42;;;;;;;5.23;2.47;;;20.90;65.70;;;;;;5045792;28;20441;-75
2023/04/14 10:15:16;;;;;;;6.87;2.03;;;21.10;67.60;;;;;;5040130;28;20992;-74
2023/04/14 10:17:43;;;;;;;5.47;2.10;;;21.70;66.20;;;;;;5038320;28;20451;-74
2023/04/14 10:20:10;;;;;;;5.07;2.07;;;22.00;64.40;;;;;;5053207;28;20453;-74
2023/04/14 10:22:38;;;;;;;4.20;2.00;;;21.30;64.30;;;;;;5046995;28;20466;-74
2023/04/14 10:25:08;;;;;;;4.00;1.70;;;20.50;66.10;;;;;;5046776;28;20994;-74
2023/04/14 10:27:36;;;;;;;2.93;1.53;;;20.00;67.50;;;;;;5050086;28;20490;-76
2023/04/14 10:30:04;;;;;;;4.80;2.23;;;20.20;65.80;;;;;;5051705;28;20564;-75
2023/04/14 10:32:35;;;;;;;4.43;1.87;;;20.10;66.80;;;;;;5048310;28;20500;-75
2023/04/14 10:35:05;;;;;;;4.67;2.10;;;20.70;66.20;;;;;;5050358;28;20500;-75
2023/04/14 10:37:33;;;;;;;3.77;1.90;;;21.30;65.40;;;;;;5034949;28;20865;-75
2023/04/14 10:40:04;;;;;;;3.87;1.70;;;21.10;64.50;;;;;;5046142;28;20838;-74
2023/04/14 10:42:52;;;;;;;4.27;2.60;;;20.10;64.20;;;;;;5036692;28;20823;-76
2023/04/14 10:45:19;;;;;;;7.10;2.50;;;19.50;66.20;;;;;;5051874;28;20553;-77
2023/04/14 10:47:46;;;;;;;4.57;1.90;;;19.40;68.90;;;;;;5050871;28;20470;-73
2023/04/14 10:50:16;;;;;;;3.90;2.30;;;19.50;67.00;;;;;;5033018;28;21056;-77
2023/04/14 10:52:54;;;;;;;5.00;2.00;;;19.00;65.10;;;;;;5039897;28;20481;-75
2023/04/14 10:55:23;;;;;;;7.90;2.10;;;18.60;66.20;;;;;;5047556;28;20485;-77
2023/04/14 10:57:53;;;;;;;4.77;2.33;;;18.40;68.20;;;;;;5047044;28;20482;-76
2023/04/14 11:00:26;;;;;;;3.63;2.00;;;18.60;67.70;;;;;;5050854;28;20963;-78
2023/04/14 11:02:58;;;;;;;3.97;2.10;;;18.90;67.40;;;;;;5047501;28;20951;-78
2023/04/14 11:05:26;;;;;;;2.07;1.60;;;19.20;66.80;;;;;;5047288;28;21014;-72
2023/04/14 11:07:57;;;;;;;6.03;3.27;;;19.30;67.70;;;;;;5043342;28;20510;-73
2023/04/14 11:10:30;;;;;;;3.37;1.97;;;19.40;66.80;;;;;;5042202;28;20466;-78
2023/04/14 11:13:02;;;;;;;5.30;2.00;;;19.50;66.70;;;;;;5048732;28;20529;-74
2023/04/14 11:15:51;;;;;;;8.27;3.17;;;19.30;65.80;;;;;;5044448;28;20909;-77
2023/04/14 11:18:31;;;;;;;5.07;2.10;;;18.80;67.70;;;;;;5039538;28;20442;-74
2023/04/14 11:21:04;;;;;;;5.43;2.30;;;18.60;68.50;;;;;;5047811;28;20449;-75
2023/04/14 11:23:31;;;;;;;5.50;1.70;;;18.50;69.60;;;;;;5043222;28;20449;-75
2023/04/14 11:25:59;;;;;;;7.27;1.70;;;18.20;69.70;;;;;;5048342;28;20609;-76
2023/04/14 11:28:34;;;;;;;7.20;1.90;;;18.30;70.90;;;;;;5049420;28;20822;-77
2023/04/14 11:31:02;;;;;;;5.63;1.97;;;18.80;71.70;;;;;;5050864;28;20461;-77
2023/04/14 11:33:30;;;;;;;5.80;1.73;;;18.90;70.20;;;;;;5042865;28;20458;-75
2023/04/14 11:35:58;;;;;;;8.53;2.90;;;18.50;68.60;;;;;;5044880;28;21043;-75
2023/04/14 11:38:25;;;;;;;4.20;2.43;;;18.30;68.90;;;;;;5055112;28;20459;-76
2023/04/14 11:40:53;;;;;;;3.10;1.67;;;18.00;69.30;;;;;;5046151;28;20532;-74
2023/04/14 11:43:22;;;;;;;6.47;2.20;;;17.80;69.80;;;;;;5046748;28;20485;-74
2023/04/14 11:45:52;;;;;;;5.90;2.47;;;17.50;69.40;;;;;;5055216;28;20794;-73
2023/04/14 11:48:20;;;;;;;2.80;1.97;;;17.20;69.80;;;;;;5045886;28;20498;-74
2023/04/14 11:50:48;;;;;;;5.23;3.03;;;17.20;70.40;;;;;;5050205;28;20453;-75
2023/04/14 11:53:17;;;;;;;4.00;1.53;;;17.40;72.30;;;;;;5053636;28;20450;-73
2023/04/14 11:55:46;;;;;;;6.47;3.17;;;18.00;70.70;;;;;;5041307;28;20495;-75
2023/04/14 11:58:15;;;;;;;7.20;2.20;;;18.40;71.50;;;;;;5036579;28;20482;-75
2023/04/14 12:00:43;;;;;;;8.40;2.40;;;18.40;67.50;;;;;;5040481;28;20442;-74
2023/04/14 12:03:12;;;;;;;5.17;2.60;;;18.00;67.30;;;;;;5046329;28;20450;-74
2023/04/14 12:05:39;;;;;;;5.67;2.23;;;17.70;67.80;;;;;;5047756;28;20519;-75
2023/04/14 12:08:08;;;;;;;8.00;2.23;;;17.40;68.80;;;;;;5048227;28;20443;-74
2023/04/14 12:10:35;;;;;;;5.50;2.37;;;17.40;69.50;;;;;;5048483;28;20456;-75
2023/04/14 12:13:03;;;;;;;7.00;2.07;;;17.10;68.30;;;;;;5047740;28;20529;-75
2023/04/14 12:15:32;;;;;;;6.57;2.20;;;17.20;67.70;;;;;;5048860;28;20481;-75
2023/04/14 12:17:59;;;;;;;5.80;2.53;;;17.40;67.50;;;;;;5059079;28;20480;-75
2023/04/14 12:20:29;;;;;;;5.20;1.77;;;17.40;66.90;;;;;;5054221;28;20450;-75
2023/04/14 12:23:02;;;;;;;4.50;2.03;;;17.50;68.60;;;;;;5060154;28;20509;-74
2023/04/14 12:25:32;;;;;;;3.97;1.90;;;17.70;68.90;;;;;;5056246;28;20497;-76
2023/04/14 12:28:01;;;;;;;5.10;2.97;;;17.60;71.00;;;;;;5055801;28;20553;-75
2023/04/14 12:30:28;;;;;;;4.77;2.40;;;17.30;72.30;;;;;;5055572;28;20450;-76
2023/04/14 12:32:56;;;;;;;8.60;2.80;;;17.10;73.40;;;;;;5044145;28;20451;-76
2023/04/14 12:35:23;;;;;;;4.43;2.30;;;17.10;73.50;;;;;;5047222;28;20898;-75
2023/04/14 12:37:52;;;;;;;4.87;2.13;;;17.20;72.80;;;;;;5046043;28;20466;-77
2023/04/14 12:40:37;;;;;;;6.53;2.07;;;17.30;73.20;;;;;;5045605;28;20870;-76
2023/04/14 12:43:04;;;;;;;6.40;2.70;;;17.40;71.50;;;;;;5048354;28;20472;-76
2023/04/14 12:45:42;;;;;;;5.73;2.17;;;17.40;72.40;;;;;;5052956;28;20522;-76
2023/04/14 12:48:09;;;;;;;7.70;2.10;;;17.40;72.40;;;;;;5044939;28;20493;-75
2023/04/14 12:50:36;;;;;;;3.70;2.10;;;17.20;73.80;;;;;;5044160;28;20545;-76
2023/04/14 12:53:23;;;;;;;4.50;2.03;;;17.40;74.20;;;;;;5040469;28;20459;-75
2023/04/14 12:56:05;;;;;;;3.60;2.10;;;17.70;72.60;;;;;;5046945;28;20513;-77
2023/04/14 12:58:32;;;;;;;9.23;2.57;;;18.10;73.00;;;;;;5046518;28;20500;-75